sensor_id;sensor_type;location;lat;lon;timestamp;pressure;altitude;pressure_sealevel;temperature;humidity
3206;BME280;1615;53.602;11.418;2022-10-31T00:01:17;101433.59;;;13.81;100.00
3206;BME280;1615;53.602;11.418;2022-10-31T00:03:43;101431.13;;;13.80;100.00
3206;BME280;1615;53.602;11.418;2022-10-31T00:06:08;101433.31;;;13.83;100.00
3206;BME280;1615;53.602;11.418;2022-10-31T00:08:34;101445.06;;;13.88;100.00
3206;BME280;1615;53.602;11.418;2022-10-31T00:10:59;101413.47;;;13.62;100.00
3206;BME280;1615;53.602;11.418;2022-10-31T00:13:24;101440.03;;;13.77;100.00
3206;BME280;1615;53.602;11.418;2022-10-31T00:15:50;101446.88;;;13.79;100.00
3206;BME280;1615;53.602;11.418;2022-10-31T00:18:15;101444.28;;;13.88;100.00
3206;BME280;1615;53.602;11.418;2022-10-31T00:20:40;101411.50;;;13.68;100.00
3206;BME280;1615;53.602;11.418;2022-10-31T00:23:06;101446.47;;;13.86;100.00
3206;BME280;1615;53.602;11.418;2022-10-31T00:25:37;101438.75;;;13.88;100.00
3206;BME280;1615;53.602;11.418;2022-10-31T00:28:04;101414.38;;;13.76;100.00
3206;BME280;1615;53.602;11.418;2022-10-31T00:30:30;101435.47;;;13.86;100.00
3206;BME280;1615;53.602;11.418;2022-10-31T00:32:55;101420.72;;;13.77;100.00
3206;BME280;1615;53.602;11.418;2022-10-31T00:35:21;101398.97;;;13.57;100.00
3206;BME280;1615;53.602;11.418;2022-10-31T00:37:46;101439.63;;;13.83;100.00
3206;BME280;1615;53.602;11.418;2022-10-31T00:40:11;101454.53;;;13.82;100.00
3206;BME280;1615;53.602;11.418;2022-10-31T00:42:37;101455.28;;;13.88;100.00
3206;BME280;1615;53.602;11.418;2022-10-31T00:45:03;101453.88;;;13.90;100.00
3206;BME280;1615;53.602;11.418;2022-10-31T00:47:29;101451.41;;;13.89;100.00
3206;BME280;1615;53.602;11.418;2022-10-31T00:49:54;101455.66;;;13.81;100.00
3206;BME280;1615;53.602;11.418;2022-10-31T00:52:19;101475.84;;;13.77;100.00
3206;BME280;1615;53.602;11.418;2022-10-31T00:54:44;101464.13;;;13.66;100.00
3206;BME280;1615;53.602;11.418;2022-10-31T00:57:10;101434.63;;;13.48;100.00
3206;BME280;1615;53.602;11.418;2022-10-31T00:59:35;101472.88;;;13.73;100.00
3206;BME280;1615;53.602;11.418;2022-10-31T01:02:00;101473.69;;;13.74;100.00
3206;BME280;1615;53.602;11.418;2022-10-31T01:04:26;101471.97;;;13.78;100.00
3206;BME280;1615;53.602;11.418;2022-10-31T01:06:51;101469.72;;;13.80;100.00
3206;BME280;1615;53.602;11.418;2022-10-31T01:09:16;101484.63;;;13.79;100.00
3206;BME280;1615;53.602;11.418;2022-10-31T01:11:42;101489.09;;;13.75;100.00
3206;BME280;1615;53.602;11.418;2022-10-31T01:14:08;101450.81;;;13.55;100.00
3206;BME280;1615;53.602;11.418;2022-10-31T01:16:33;101489.09;;;13.75;100.00
3206;BME280;1615;53.602;11.418;2022-10-31T01:18:58;101495.16;;;13.77;100.00
3206;BME280;1615;53.602;11.418;2022-10-31T01:21:26;101498.25;;;13.70;100.00
3206;BME280;1615;53.602;11.418;2022-10-31T01:23:56;101495.66;;;13.79;100.00
3206;BME280;1615;53.602;11.418;2022-10-31T01:26:23;101472.63;;;13.70;100.00
3206;BME280;1615;53.602;11.418;2022-10-31T01:28:51;101483.00;;;13.78;100.00
3206;BME280;1615;53.602;11.418;2022-10-31T01:31:18;101489.91;;;13.75;100.00
3206;BME280;1615;53.602;11.418;2022-10-31T01:33:44;101417.81;;;13.31;100.00
3206;BME280;1615;53.602;11.418;2022-10-31T01:36:29;101497.34;;;13.75;100.00
3206;BME280;1615;53.602;11.418;2022-10-31T01:39:00;101489.91;;;13.75;100.00
3206;BME280;1615;53.602;11.418;2022-10-31T01:41:30;101494.59;;;13.75;100.00
3206;BME280;1615;53.602;11.418;2022-10-31T01:43:58;101497.91;;;13.77;100.00
3206;BME280;1615;53.602;11.418;2022-10-31T01:46:29;101477.63;;;13.68;100.00
3206;BME280;1615;53.602;11.418;2022-10-31T01:48:57;101493.41;;;13.81;100.00
3206;BME280;1615;53.602;11.418;2022-10-31T01:51:29;101483.72;;;13.83;100.00
3206;BME280;1615;53.602;11.418;2022-10-31T01:53:58;101490.00;;;13.89;100.00
3206;BME280;1615;53.602;11.418;2022-10-31T01:56:26;101498.19;;;13.94;100.00
3206;BME280;1615;53.602;11.418;2022-10-31T01:58:54;101490.16;;;13.79;100.00
3206;BME280;1615;53.602;11.418;2022-10-31T02:01:20;101506.03;;;13.87;100.00
3206;BME280;1615;53.602;11.418;2022-10-31T02:03:46;101509.38;;;13.84;100.00
3206;BME280;1615;53.602;11.418;2022-10-31T02:06:21;101516.50;;;13.85;100.00
3206;BME280;1615;53.602;11.418;2022-10-31T02:08:53;101498.78;;;13.72;100.00
3206;BME280;1615;53.602;11.418;2022-10-31T02:11:18;101510.19;;;13.84;100.00
3206;BME280;1615;53.602;11.418;2022-10-31T02:13:43;101504.91;;;13.88;100.00
3206;BME280;1615;53.602;11.418;2022-10-31T02:16:09;101526.34;;;13.91;100.00
3206;BME280;1615;53.602;11.418;2022-10-31T02:18:34;101508.41;;;13.93;100.00
3206;BME280;1615;53.602;11.418;2022-10-31T02:24:00;101507.88;;;13.91;100.00
3206;BME280;1615;53.602;11.418;2022-10-31T02:27:03;101511.47;;;13.92;100.00
3206;BME280;1615;53.602;11.418;2022-10-31T02:29:39;101513.13;;;13.93;100.00
3206;BME280;1615;53.602;11.418;2022-10-31T02:32:21;101523.53;;;13.96;100.00
3206;BME280;1615;53.602;11.418;2022-10-31T02:40:24;101531.16;;;14.04;100.00
3206;BME280;1615;53.602;11.418;2022-10-31T02:42:59;101528.38;;;14.04;100.00
3206;BME280;1615;53.602;11.418;2022-10-31T02:45:35;101531.16;;;14.04;100.00
3206;BME280;1615;53.602;11.418;2022-10-31T02:48:10;101529.50;;;14.03;100.00
3206;BME280;1615;53.602;11.418;2022-10-31T02:50:41;101531.16;;;14.04;100.00
3206;BME280;1615;53.602;11.418;2022-10-31T02:53:07;101530.03;;;14.05;100.00
3206;BME280;1615;53.602;11.418;2022-10-31T02:58:14;101539.94;;;14.06;100.00
3206;BME280;1615;53.602;11.418;2022-10-31T03:00:59;101539.41;;;14.04;100.00
3206;BME280;1615;53.602;11.418;2022-10-31T03:09:15;101540.47;;;14.08;100.00
3206;BME280;1615;53.602;11.418;2022-10-31T03:11:49;101539.41;;;14.04;100.00
3206;BME280;1615;53.602;11.418;2022-10-31T03:14:38;101530.66;;;13.97;100.00
3206;BME280;1615;53.602;11.418;2022-10-31T03:17:06;101548.41;;;13.91;100.00
3206;BME280;1615;53.602;11.418;2022-10-31T03:19:42;101547.22;;;13.97;100.00
3206;BME280;1615;53.602;11.418;2022-10-31T03:22:25;101561.59;;;13.94;100.00
3206;BME280;1615;53.602;11.418;2022-10-31T03:24:52;101565.41;;;13.98;100.00
3206;BME280;1615;53.602;11.418;2022-10-31T03:27:23;101529.84;;;13.78;100.00
3206;BME280;1615;53.602;11.418;2022-10-31T03:29:50;101561.75;;;14.02;100.00
3206;BME280;1615;53.602;11.418;2022-10-31T03:32:27;101569.75;;;14.04;100.00
3206;BME280;1615;53.602;11.418;2022-10-31T03:34:56;101576.91;;;14.05;100.00
3206;BME280;1615;53.602;11.418;2022-10-31T03:37:23;101209.69;;;11.47;100.00
3206;BME280;1615;53.602;11.418;2022-10-31T03:39:49;101568.13;;;14.03;100.00
3206;BME280;1615;53.602;11.418;2022-10-31T03:42:21;101558.09;;;13.88;100.00
3206;BME280;1615;53.602;11.418;2022-10-31T03:45:15;101580.31;;;13.97;100.00
3206;BME280;1615;53.602;11.418;2022-10-31T03:47:38;101580.91;;;13.94;100.00
3206;BME280;1615;53.602;11.418;2022-10-31T03:50:06;101600.22;;;13.94;100.00
3206;BME280;1615;53.602;11.418;2022-10-31T03:52:42;101581.41;;;13.96;100.00
3206;BME280;1615;53.602;11.418;2022-10-31T03:55:29;101607.88;;;13.97;100.00
3206;BME280;1615;53.602;11.418;2022-10-31T03:58:08;101579.78;;;13.95;100.00
3206;BME280;1615;53.602;11.418;2022-10-31T04:00:35;101580.91;;;13.94;100.00
3206;BME280;1615;53.602;11.418;2022-10-31T04:03:07;101577.53;;;13.97;100.00
3206;BME280;1615;53.602;11.418;2022-10-31T04:05:36;101580.63;;;13.95;100.00
3206;BME280;1615;53.602;11.418;2022-10-31T04:08:05;101586.88;;;14.01;100.00
3206;BME280;1615;53.602;11.418;2022-10-31T04:10:34;101595.69;;;14.03;100.00
3206;BME280;1615;53.602;11.418;2022-10-31T04:13:09;101598.72;;;14.01;100.00
3206;BME280;1615;53.602;11.418;2022-10-31T04:15:37;101581.13;;;13.97;100.00
3206;BME280;1615;53.602;11.418;2022-10-31T04:18:04;101612.69;;;14.10;100.00
3206;BME280;1615;53.602;11.418;2022-10-31T04:20:33;101609.31;;;14.13;100.00
3206;BME280;1615;53.602;11.418;2022-10-31T04:22:59;101611.28;;;14.12;100.00
3206;BME280;1615;53.602;11.418;2022-10-31T04:25:25;101613.47;;;14.10;100.00
3206;BME280;1615;53.602;11.418;2022-10-31T04:27:50;101619.81;;;14.11;100.00
3206;BME280;1615;53.602;11.418;2022-10-31T04:30:15;101583.59;;;13.99;100.00
3206;BME280;1615;53.602;11.418;2022-10-31T04:32:41;101617.25;;;14.19;100.00
3206;BME280;1615;53.602;11.418;2022-10-31T04:35:06;101617.25;;;14.19;100.00
3206;BME280;1615;53.602;11.418;2022-10-31T04:37:32;101615.03;;;14.21;100.00
3206;BME280;1615;53.602;11.418;2022-10-31T04:39:57;101611.97;;;14.23;100.00
3206;BME280;1615;53.602;11.418;2022-10-31T04:42:22;101626.88;;;14.22;100.00
3206;BME280;1615;53.602;11.418;2022-10-31T04:44:47;101624.66;;;14.24;100.00
3206;BME280;1615;53.602;11.418;2022-10-31T04:47:13;101630.19;;;14.24;100.00
3206;BME280;1615;53.602;11.418;2022-10-31T04:49:38;101641.44;;;14.27;100.00
3206;BME280;1615;53.602;11.418;2022-10-31T04:52:03;101625.91;;;14.31;100.00
3206;BME280;1615;53.602;11.418;2022-10-31T04:54:28;101626.16;;;14.35;100.00
3206;BME280;1615;53.602;11.418;2022-10-31T04:56:54;101618.91;;;14.39;100.00
3206;BME280;1615;53.602;11.418;2022-10-31T04:59:19;101493.09;;;13.64;100.00
3206;BME280;1615;53.602;11.418;2022-10-31T05:01:44;101626.25;;;14.48;100.00
3206;BME280;1615;53.602;11.418;2022-10-31T05:04:10;101625.56;;;14.56;100.00
3206;BME280;1615;53.602;11.418;2022-10-31T05:06:35;101641.47;;;14.64;100.00
3206;BME280;1615;53.602;11.418;2022-10-31T05:09:00;101520.78;;;13.96;100.00
3206;BME280;1615;53.602;11.418;2022-10-31T05:11:26;101643.31;;;14.69;100.00
3206;BME280;1615;53.602;11.418;2022-10-31T05:13:51;101627.72;;;14.59;100.00
3206;BME280;1615;53.602;11.418;2022-10-31T05:16:17;101650.31;;;14.80;100.00
3206;BME280;1615;53.602;11.418;2022-10-31T05:18:42;101648.06;;;14.82;100.00
3206;BME280;1615;53.602;11.418;2022-10-31T05:21:07;101650.31;;;14.80;100.00
3206;BME280;1615;53.602;11.418;2022-10-31T05:23:33;101642.03;;;14.80;100.00
3206;BME280;1615;53.602;11.418;2022-10-31T05:25:58;101644.50;;;14.81;100.00
3206;BME280;1615;53.602;11.418;2022-10-31T05:28:23;101646.66;;;14.84;100.00
3206;BME280;1615;53.602;11.418;2022-10-31T05:30:49;101646.88;;;14.88;100.00
3206;BME280;1615;53.602;11.418;2022-10-31T05:33:14;101643.44;;;14.96;100.00
3206;BME280;1615;53.602;11.418;2022-10-31T05:35:39;101645.59;;;14.99;100.00
3206;BME280;1615;53.602;11.418;2022-10-31T05:38:04;101643.06;;;15.02;100.00
3206;BME280;1615;53.602;11.418;2022-10-31T05:40:30;101647.53;;;14.98;100.00
3206;BME280;1615;53.602;11.418;2022-10-31T05:42:56;101644.47;;;15.00;100.00
3206;BME280;1615;53.602;11.418;2022-10-31T05:45:23;101643.25;;;15.06;100.00
3206;BME280;1615;53.602;11.418;2022-10-31T05:50:17;101651.63;;;15.01;100.00
3206;BME280;1615;53.602;11.418;2022-10-31T05:52:42;101652.47;;;15.01;100.00
3206;BME280;1615;53.602;11.418;2022-10-31T05:55:08;101652.91;;;15.08;100.00
3206;BME280;1615;53.602;11.418;2022-10-31T05:57:33;101654.16;;;15.16;100.00
3206;BME280;1615;53.602;11.418;2022-10-31T05:59:59;101622.09;;;15.01;100.00
3206;BME280;1615;53.602;11.418;2022-10-31T06:02:24;101661.81;;;15.19;100.00
3206;BME280;1615;53.602;11.418;2022-10-31T06:04:50;101651.59;;;15.19;100.00
3206;BME280;1615;53.602;11.418;2022-10-31T06:07:15;101653.72;;;15.22;100.00
3206;BME280;1615;53.602;11.418;2022-10-31T06:09:40;101660.09;;;15.23;100.00
3206;BME280;1615;53.602;11.418;2022-10-31T06:12:06;101662.78;;;15.28;100.00
3206;BME280;1615;53.602;11.418;2022-10-31T06:14:31;101663.59;;;15.28;100.00
3206;BME280;1615;53.602;11.418;2022-10-31T06:16:57;101664.34;;;15.34;100.00
3206;BME280;1615;53.602;11.418;2022-10-31T06:19:22;101673.06;;;15.41;100.00
3206;BME280;1615;53.602;11.418;2022-10-31T06:21:47;101671.63;;;15.43;100.00
3206;BME280;1615;53.602;11.418;2022-10-31T06:24:12;101678.59;;;15.41;100.00
3206;BME280;1615;53.602;11.418;2022-10-31T06:26:38;101672.97;;;15.46;100.00
3206;BME280;1615;53.602;11.418;2022-10-31T06:29:03;101686.19;;;15.49;100.00
3206;BME280;1615;53.602;11.418;2022-10-31T06:31:29;101692.56;;;15.49;100.00
3206;BME280;1615;53.602;11.418;2022-10-31T06:33:54;101699.94;;;15.54;100.00
3206;BME280;1615;53.602;11.418;2022-10-31T06:36:19;101685.16;;;15.45;100.00
3206;BME280;1615;53.602;11.418;2022-10-31T06:38:45;101710.59;;;15.60;100.00
3206;BME280;1615;53.602;11.418;2022-10-31T06:41:10;101707.50;;;15.62;100.00
3206;BME280;1615;53.602;11.418;2022-10-31T06:43:35;101712.44;;;15.65;100.00
3206;BME280;1615;53.602;11.418;2022-10-31T06:46:04;101698.31;;;15.66;100.00
3206;BME280;1615;53.602;11.418;2022-10-31T06:48:30;101702.22;;;15.65;100.00
3206;BME280;1615;53.602;11.418;2022-10-31T06:50:59;101697.69;;;15.69;100.00
3206;BME280;1615;53.602;11.418;2022-10-31T06:53:28;101702.00;;;15.75;100.00
3206;BME280;1615;53.602;11.418;2022-10-31T06:55:57;101669.13;;;15.60;100.00
3206;BME280;1615;53.602;11.418;2022-10-31T06:58:23;101724.56;;;15.82;100.00
3206;BME280;1615;53.602;11.418;2022-10-31T07:00:48;101697.41;;;15.84;100.00
3206;BME280;1615;53.602;11.418;2022-10-31T07:03:14;101707.34;;;15.85;100.00
3206;BME280;1615;53.602;11.418;2022-10-31T07:05:41;101713.09;;;15.89;100.00
3206;BME280;1615;53.602;11.418;2022-10-31T07:08:08;101711.44;;;15.88;100.00
3206;BME280;1615;53.602;11.418;2022-10-31T07:10:35;101712.28;;;15.88;100.00
3206;BME280;1615;53.602;11.418;2022-10-31T07:13:05;101721.09;;;15.90;100.00
3206;BME280;1615;53.602;11.418;2022-10-31T07:15:34;101745.06;;;15.81;100.00
3206;BME280;1615;53.602;11.418;2022-10-31T07:18:01;101728.47;;;15.95;100.00
3206;BME280;1615;53.602;11.418;2022-10-31T07:20:27;101630.06;;;15.35;100.00
3206;BME280;1615;53.602;11.418;2022-10-31T07:22:52;101727.66;;;16.08;100.00
3206;BME280;1615;53.602;11.418;2022-10-31T07:25:17;101729.31;;;16.09;100.00
3206;BME280;1615;53.602;11.418;2022-10-31T07:27:43;101714.56;;;16.00;100.00
3206;BME280;1615;53.602;11.418;2022-10-31T07:30:11;101734.72;;;16.14;100.00
3206;BME280;1615;53.602;11.418;2022-10-31T07:32:40;101743.44;;;16.21;100.00
3206;BME280;1615;53.602;11.418;2022-10-31T07:35:07;101746.94;;;16.26;100.00
3206;BME280;1615;53.602;11.418;2022-10-31T07:37:33;101743.88;;;16.28;100.00
3206;BME280;1615;53.602;11.418;2022-10-31T07:39:58;101746.53;;;16.33;100.00
3206;BME280;1615;53.602;11.418;2022-10-31T07:42:23;101749.22;;;16.38;100.00
3206;BME280;1615;53.602;11.418;2022-10-31T07:44:48;101755.78;;;16.42;100.00
3206;BME280;1615;53.602;11.418;2022-10-31T07:47:14;101750.13;;;16.47;100.00
3206;BME280;1615;53.602;11.418;2022-10-31T07:49:39;101757.19;;;16.53;100.00
3206;BME280;1615;53.602;11.418;2022-10-31T07:52:04;101746.56;;;16.46;100.00
3206;BME280;1615;53.602;11.418;2022-10-31T07:54:30;101759.88;;;16.58;100.00
3206;BME280;1615;53.602;11.418;2022-10-31T07:56:55;101761.84;;;16.57;100.00
3206;BME280;1615;53.602;11.418;2022-10-31T07:59:20;101761.53;;;16.59;100.00
3206;BME280;1615;53.602;11.418;2022-10-31T08:01:45;101764.59;;;16.57;100.00
3206;BME280;1615;53.602;11.418;2022-10-31T08:04:11;101728.44;;;16.40;100.00
3206;BME280;1615;53.602;11.418;2022-10-31T08:06:36;101773.81;;;16.53;100.00
3206;BME280;1615;53.602;11.418;2022-10-31T08:09:01;101766.94;;;16.50;100.00
3206;BME280;1615;53.602;11.418;2022-10-31T08:11:27;101702.16;;;16.24;100.00
3206;BME280;1615;53.602;11.418;2022-10-31T08:13:52;101756.78;;;16.59;100.00
3206;BME280;1615;53.602;11.418;2022-10-31T08:16:17;101763.97;;;16.60;100.00
3206;BME280;1615;53.602;11.418;2022-10-31T08:18:42;101770.53;;;16.51;100.00
3206;BME280;1615;53.602;11.418;2022-10-31T08:21:08;101765.94;;;16.60;100.00
3206;BME280;1615;53.602;11.418;2022-10-31T08:23:33;101767.47;;;16.66;100.00
3206;BME280;1615;53.602;11.418;2022-10-31T08:25:58;101772.38;;;16.69;100.00
3206;BME280;1615;53.602;11.418;2022-10-31T08:28:23;101773.41;;;16.73;100.00
3206;BME280;1615;53.602;11.418;2022-10-31T08:30:49;101768.88;;;16.77;100.00
3206;BME280;1615;53.602;11.418;2022-10-31T08:33:16;101770.91;;;16.85;100.00
3206;BME280;1615;53.602;11.418;2022-10-31T08:35:42;101765.59;;;16.88;100.00
3206;BME280;1615;53.602;11.418;2022-10-31T08:38:09;101770.50;;;16.91;100.00
3206;BME280;1615;53.602;11.418;2022-10-31T08:40:35;101772.13;;;16.92;100.00
3206;BME280;1615;53.602;11.418;2022-10-31T08:43:08;101775.44;;;16.94;100.00
3206;BME280;1615;53.602;11.418;2022-10-31T08:45:35;101772.34;;;16.96;100.00
3206;BME280;1615;53.602;11.418;2022-10-31T08:48:03;101769.06;;;16.94;100.00
3206;BME280;1615;53.602;11.418;2022-10-31T08:50:29;101761.28;;;16.96;100.00
3206;BME280;1615;53.602;11.418;2022-10-31T08:53:10;101767.59;;;16.96;100.00
3206;BME280;1615;53.602;11.418;2022-10-31T08:55:37;101780.03;;;16.99;100.00
3206;BME280;1615;53.602;11.418;2022-10-31T08:58:04;101767.19;;;17.03;100.00
3206;BME280;1615;53.602;11.418;2022-10-31T09:00:31;101769.84;;;17.08;100.00
3206;BME280;1615;53.602;11.418;2022-10-31T09:02:58;101770.03;;;17.11;100.00
3206;BME280;1615;53.602;11.418;2022-10-31T09:05:24;101771.66;;;17.12;100.00
3206;BME280;1615;53.602;11.418;2022-10-31T09:07:49;101759.44;;;17.13;100.00
3206;BME280;1615;53.602;11.418;2022-10-31T09:10:15;101758.53;;;17.18;100.00
3206;BME280;1615;53.602;11.418;2022-10-31T09:12:40;101760.28;;;17.14;100.00
3206;BME280;1615;53.602;11.418;2022-10-31T09:15:06;101767.94;;;17.17;100.00
3206;BME280;1615;53.602;11.418;2022-10-31T09:17:32;101768.84;;;17.26;100.00
3206;BME280;1615;53.602;11.418;2022-10-31T09:19:57;101767.59;;;17.32;100.00
3206;BME280;1615;53.602;11.418;2022-10-31T09:22:22;101768.13;;;17.34;100.00
3206;BME280;1615;53.602;11.418;2022-10-31T09:24:48;101715.03;;;17.05;100.00
3206;BME280;1615;53.602;11.418;2022-10-31T09:27:13;101769.09;;;17.38;100.00
3206;BME280;1615;53.602;11.418;2022-10-31T09:29:38;101773.84;;;17.37;100.00
3206;BME280;1615;53.602;11.418;2022-10-31T09:32:04;101764.63;;;17.42;100.00
3206;BME280;1615;53.602;11.418;2022-10-31T09:34:29;101797.41;;;17.40;100.00
3206;BME280;1615;53.602;11.418;2022-10-31T09:36:54;101771.19;;;17.46;100.00
3206;BME280;1615;53.602;11.418;2022-10-31T09:39:20;101768.91;;;17.48;100.00
3206;BME280;1615;53.602;11.418;2022-10-31T09:50:57;101787.94;;;17.63;100.00
3206;BME280;1615;53.602;11.418;2022-10-31T09:53:07;101779.13;;;17.61;100.00
3206;BME280;1615;53.602;11.418;2022-10-31T09:55:40;101772.94;;;17.64;100.00
3206;BME280;1615;53.602;11.418;2022-10-31T09:58:16;101776.22;;;17.66;100.00
3206;BME280;1615;53.602;11.418;2022-10-31T10:00:43;101770.81;;;17.61;100.00
3206;BME280;1615;53.602;11.418;2022-10-31T10:06:12;101732.34;;;17.46;100.00
3206;BME280;1615;53.602;11.418;2022-10-31T10:08:39;101781.06;;;17.82;100.00
3206;BME280;1615;53.602;11.418;2022-10-31T10:14:13;101787.44;;;17.83;100.00
3206;BME280;1615;53.602;11.418;2022-10-31T10:22:15;101781.00;;;17.74;100.00
3206;BME280;1615;53.602;11.418;2022-10-31T10:27:45;101686.84;;;17.25;100.00
3206;BME280;1615;53.602;11.418;2022-10-31T10:30:19;101777.59;;;17.77;100.00
3206;BME280;1615;53.602;11.418;2022-10-31T10:32:57;101720.78;;;17.44;100.00
3206;BME280;1615;53.602;11.418;2022-10-31T10:35:35;101775.31;;;17.79;100.00
3206;BME280;1615;53.602;11.418;2022-10-31T10:38:10;101779.72;;;17.80;100.00
3206;BME280;1615;53.602;11.418;2022-10-31T10:40:37;101775.97;;;17.76;100.00
3206;BME280;1615;53.602;11.418;2022-10-31T10:45:52;101773.38;;;17.79;100.00
3206;BME280;1615;53.602;11.418;2022-10-31T10:51:47;101769.25;;;17.99;100.00
3206;BME280;1615;53.602;11.418;2022-10-31T10:57:23;101763.91;;;18.11;100.00
3206;BME280;1615;53.602;11.418;2022-10-31T10:59:52;101763.44;;;18.09;100.00
3206;BME280;1615;53.602;11.418;2022-10-31T11:02:26;101755.72;;;18.06;100.00
3206;BME280;1615;53.602;11.418;2022-10-31T11:04:57;101754.09;;;18.05;100.00
3206;BME280;1615;53.602;11.418;2022-10-31T11:07:23;101753.97;;;18.10;100.00
3206;BME280;1615;53.602;11.418;2022-10-31T11:09:48;101755.59;;;18.11;100.00
3206;BME280;1615;53.602;11.418;2022-10-31T11:12:20;101757.22;;;18.12;100.00
3206;BME280;1615;53.602;11.418;2022-10-31T11:14:50;101753.50;;;18.16;100.00
3206;BME280;1615;53.602;11.418;2022-10-31T11:17:30;101753.81;;;18.15;100.00
3206;BME280;1615;53.602;11.418;2022-10-31T11:20:02;101744.84;;;18.18;100.00
3206;BME280;1615;53.602;11.418;2022-10-31T11:22:27;101751.38;;;18.22;100.00
3206;BME280;1615;53.602;11.418;2022-10-31T11:24:53;101750.38;;;18.18;100.00
3206;BME280;1615;53.602;11.418;2022-10-31T11:27:24;101746.84;;;18.26;100.00
3206;BME280;1615;53.602;11.418;2022-10-31T11:29:50;101737.81;;;18.20;100.00
3206;BME280;1615;53.602;11.418;2022-10-31T11:32:24;101733.72;;;18.18;100.00
3206;BME280;1615;53.602;11.418;2022-10-31T11:34:54;101730.19;;;18.26;100.00
3206;BME280;1615;53.602;11.418;2022-10-31T11:37:24;101730.97;;;18.26;100.00
3206;BME280;1615;53.602;11.418;2022-10-31T11:39:56;101717.41;;;18.16;100.00
3206;BME280;1615;53.602;11.418;2022-10-31T11:42:26;101691.53;;;17.99;100.00
3206;BME280;1615;53.602;11.418;2022-10-31T11:44:53;101733.09;;;18.21;100.00
3206;BME280;1615;53.602;11.418;2022-10-31T11:47:26;101692.16;;;17.96;100.00
3206;BME280;1615;53.602;11.418;2022-10-31T11:49:53;101600.13;;;17.33;100.00
3206;BME280;1615;53.602;11.418;2022-10-31T11:52:27;101706.19;;;17.91;100.00
3206;BME280;1615;53.602;11.418;2022-10-31T11:55:13;101729.56;;;17.98;100.00
3206;BME280;1615;53.602;11.418;2022-10-31T11:57:44;101731.69;;;17.93;100.00
3206;BME280;1615;53.602;11.418;2022-10-31T12:02:44;101729.25;;;18.00;100.00
3206;BME280;1615;53.602;11.418;2022-10-31T12:05:19;101727.63;;;17.99;100.00
3206;BME280;1615;53.602;11.418;2022-10-31T12:07:47;101724.53;;;18.00;100.00
3206;BME280;1615;53.602;11.418;2022-10-31T12:10:13;101720.88;;;17.91;100.00
3206;BME280;1615;53.602;11.418;2022-10-31T12:12:54;101742.13;;;17.96;100.00
3206;BME280;1615;53.602;11.418;2022-10-31T12:15:30;101736.41;;;17.92;100.00
3206;BME280;1615;53.602;11.418;2022-10-31T12:23:33;101723.88;;;17.73;100.00
3206;BME280;1615;53.602;11.418;2022-10-31T12:26:07;101714.56;;;17.69;100.00
3206;BME280;1615;53.602;11.418;2022-10-31T12:28:41;101720.75;;;17.66;100.00
3206;BME280;1615;53.602;11.418;2022-10-31T12:31:23;101718.47;;;17.68;100.00
3206;BME280;1615;53.602;11.418;2022-10-31T12:44:43;101705.97;;;18.18;100.00
3206;BME280;1615;53.602;11.418;2022-10-31T12:50:36;101707.63;;;18.19;100.00
3206;BME280;1615;53.602;11.418;2022-10-31T12:58:37;101699.97;;;18.24;100.00
3206;BME280;1615;53.602;11.418;2022-10-31T13:01:11;101732.09;;;18.17;100.00
3206;BME280;1615;53.602;11.418;2022-10-31T13:03:53;101699.06;;;18.07;100.00
3206;BME280;1615;53.602;11.418;2022-10-31T13:06:25;101704.13;;;18.05;100.00
3206;BME280;1615;53.602;11.418;2022-10-31T13:08:55;101701.59;;;17.86;100.00
3206;BME280;1615;53.602;11.418;2022-10-31T13:11:24;101702.09;;;17.88;100.00
3206;BME280;1615;53.602;11.418;2022-10-31T13:14:07;101701.28;;;17.88;100.00
3206;BME280;1615;53.602;11.418;2022-10-31T13:16:38;101695.91;;;17.91;100.00
3206;BME280;1615;53.602;11.418;2022-10-31T13:19:16;101697.03;;;17.82;100.00
3206;BME280;1615;53.602;11.418;2022-10-31T13:21:57;101703.69;;;17.81;100.00
3206;BME280;1615;53.602;11.418;2022-10-31T13:24:47;101708.75;;;17.79;100.00
3206;BME280;1615;53.602;11.418;2022-10-31T13:27:24;101702.97;;;17.67;100.00
3206;BME280;1615;53.602;11.418;2022-10-31T13:30:01;101698.38;;;17.40;100.00
3206;BME280;1615;53.602;11.418;2022-10-31T13:32:36;101692.63;;;17.37;100.00
3206;BME280;1615;53.602;11.418;2022-10-31T13:35:04;101699.75;;;17.29;100.00
3206;BME280;1615;53.602;11.418;2022-10-31T13:37:43;101696.66;;;17.31;100.00
3206;BME280;1615;53.602;11.418;2022-10-31T13:40:27;101693.88;;;17.31;100.00
3206;BME280;1615;53.602;11.418;2022-10-31T13:43:19;101698.28;;;17.32;100.00
3206;BME280;1615;53.602;11.418;2022-10-31T13:45:49;101683.94;;;17.30;100.00
3206;BME280;1615;53.602;11.418;2022-10-31T13:50:41;101692.38;;;17.25;100.00
3206;BME280;1615;53.602;11.418;2022-10-31T13:53:21;101683.63;;;17.31;100.00
3206;BME280;1615;53.602;11.418;2022-10-31T13:55:49;101679.66;;;17.24;100.00
3206;BME280;1615;53.602;11.418;2022-10-31T13:58:28;101676.19;;;17.18;100.00
3206;BME280;1615;53.602;11.418;2022-10-31T14:03:36;101695.41;;;17.15;100.00
3206;BME280;1615;53.602;11.418;2022-10-31T14:06:03;101674.63;;;17.26;100.00
3206;BME280;1615;53.602;11.418;2022-10-31T14:08:33;101673.47;;;17.27;100.00
3206;BME280;1615;53.602;11.418;2022-10-31T14:10:59;101670.56;;;17.32;100.00
3206;BME280;1615;53.602;11.418;2022-10-31T14:13:43;101674.50;;;17.31;100.00
3206;BME280;1615;53.602;11.418;2022-10-31T14:16:23;101671.59;;;17.36;100.00
3206;BME280;1615;53.602;11.418;2022-10-31T14:18:58;101669.84;;;17.40;100.00
3206;BME280;1615;53.602;11.418;2022-10-31T14:21:31;101665.03;;;17.32;100.00
3206;BME280;1615;53.602;11.418;2022-10-31T14:24:01;101587.09;;;16.81;100.00